Time;durP1;ratioP1;P1;durP2;ratioP2;P2;SDS_P1;SDS_P2;PMS_P1;PMS_P2;Temp;Humidity;BMP_temperature;BMP_pressure;BME280_temperature;BME280_humidity;BME280_pressure;Samples;Min_cycle;Max_cycle;Signal;HPM_P1;HPM_P2
2021/08/09 00:00:19;;;;;;;10.08;5.35;;;;;;;19.31;79.96;100905.80;1678442;83;21084;-59
2021/08/09 00:02:46;;;;;;;14.55;4.70;;;;;;;19.32;80.27;100906.19;1668295;84;20951;-59
2021/08/09 00:05:15;;;;;;;11.65;5.87;;;;;;;19.32;80.27;100906.66;1677221;83;21026;-58
2021/08/09 00:07:42;;;;;;;13.05;4.87;;;;;;;19.31;80.04;100902.20;1692514;83;21076;-58
2021/08/09 00:10:09;;;;;;;10.08;4.92;;;;;;;19.33;79.65;100904.31;1697624;83;21035;-58
2021/08/09 00:12:38;;;;;;;7.17;4.80;;;;;;;19.35;79.23;100901.03;1695365;83;21060;-59
2021/08/09 00:15:07;;;;;;;8.93;4.67;;;;;;;19.38;78.65;100898.09;1692344;83;21044;-59
2021/08/09 00:17:33;;;;;;;11.65;4.83;;;;;;;19.42;78.31;100905.05;1693585;83;21557;-59
2021/08/09 00:20:00;;;;;;;8.13;4.85;;;;;;;19.47;78.05;100903.38;1694233;83;21460;-59
2021/08/09 00:22:29;;;;;;;7.40;4.90;;;;;;;19.54;77.77;100899.72;1689252;83;20972;-59
2021/08/09 00:24:56;;;;;;;10.93;5.97;;;;;;;19.58;77.41;100899.91;1663159;85;21096;-59
2021/08/09 00:27:23;;;;;;;10.32;4.97;;;;;;;19.62;77.31;100900.06;1691518;83;21533;-58
2021/08/09 00:29:52;;;;;;;9.25;5.00;;;;;;;19.63;77.21;100897.72;1681294;84;21128;-59
2021/08/09 00:32:19;;;;;;;11.55;5.12;;;;;;;19.65;77.07;100893.51;1678064;84;22055;-59
2021/08/09 00:34:48;;;;;;;8.78;5.08;;;;;;;19.65;77.09;100899.83;1672027;84;21040;-58
2021/08/09 00:37:16;;;;;;;8.35;4.85;;;;;;;19.67;77.16;100895.63;1673595;84;21067;-57
2021/08/09 00:39:44;;;;;;;9.63;4.97;;;;;;;19.69;77.40;100895.91;1691629;83;21473;-58
2021/08/09 00:42:11;;;;;;;6.92;5.10;;;;;;;19.63;77.54;100893.64;1681071;84;22855;-57
2021/08/09 00:44:39;;;;;;;13.78;5.65;;;;;;;19.51;77.82;100898.57;1691119;83;21611;-58
2021/08/09 00:47:07;;;;;;;6.90;5.35;;;;;;;19.36;78.23;100890.54;1700810;83;20967;-59
2021/08/09 00:49:34;;;;;;;8.50;5.00;;;;;;;19.27;78.73;100891.16;1687640;83;21569;-59
2021/08/09 00:52:05;;;;;;;10.13;5.05;;;;;;;19.24;79.13;100890.02;1694704;83;21011;-59
2021/08/09 00:54:33;;;;;;;12.13;5.03;;;;;;;19.22;79.37;100897.41;1677035;84;21723;-59
2021/08/09 00:57:01;;;;;;;7.25;4.75;;;;;;;19.21;79.52;100899.75;1698725;83;21024;-59
2021/08/09 00:59:29;;;;;;;9.90;5.30;;;;;;;19.17;79.73;100901.33;1698037;83;21995;-59
2021/08/09 01:01:56;;;;;;;14.70;5.00;;;;;;;19.15;79.96;100899.21;1696428;83;20982;-57
2021/08/09 01:04:24;;;;;;;13.32;5.50;;;;;;;19.15;80.15;100896.97;1656794;84;21576;-58
2021/08/09 01:06:52;;;;;;;10.10;5.28;;;;;;;19.15;80.28;100891.05;1689563;84;21164;-58
2021/08/09 01:09:28;;;;;;;11.12;5.22;;;;;;;19.15;80.23;100889.70;1698577;83;21109;-59
2021/08/09 01:12:19;;;;;;;15.85;5.53;;;;;;;19.11;80.21;100881.86;1688234;84;21062;-58
2021/08/09 01:15:20;;;;;;;10.55;5.80;;;;;;;19.04;80.46;100889.08;1690183;83;21101;-58
2021/08/09 01:17:49;;;;;;;7.22;5.00;;;;;;;19.04;80.70;100893.63;1691910;83;21014;-58
2021/08/09 01:20:51;;;;;;;6.83;5.08;;;;;;;19.07;80.66;100880.33;1688520;84;21151;-58
2021/08/09 01:23:38;;;;;;;7.45;4.92;;;;;;;19.08;80.56;100880.71;1691545;83;21073;-58
2021/08/09 01:26:45;;;;;;;8.60;4.60;;;;;;;19.10;80.46;100879.61;1679233;85;21021;-58
2021/08/09 01:29:15;;;;;;;8.35;5.25;;;;;;;19.11;80.33;100883.21;1676660;85;21545;-58
2021/08/09 01:31:46;;;;;;;13.05;5.42;;;;;;;19.06;80.33;100874.01;1677155;85;21054;-58
2021/08/09 01:34:15;;;;;;;8.40;5.35;;;;;;;19.06;80.41;100874.01;1695273;83;21866;-65
2021/08/09 01:36:47;;;;;;;10.32;5.35;;;;;;;19.06;80.46;100867.72;1670838;84;22195;-65
2021/08/09 01:39:16;;;;;;;11.20;5.65;;;;;;;19.04;80.50;100871.89;1693256;83;21044;-65
2021/08/09 01:41:44;;;;;;;7.67;5.12;;;;;;;19.01;80.64;100872.11;1707448;82;21482;-65
2021/08/09 01:44:11;;;;;;;7.55;5.00;;;;;;;18.98;80.94;100875.00;1695621;83;21560;-66
2021/08/09 01:46:38;;;;;;;6.95;5.20;;;;;;;18.95;81.17;100880.66;1692346;83;22268;-65
2021/08/09 01:49:06;;;;;;;13.98;5.72;;;;;;;18.90;81.37;100883.20;1668059;84;21023;-65
2021/08/09 01:51:40;;;;;;;14.53;5.17;;;;;;;18.90;81.55;100882.31;1661986;83;21099;-65
2021/08/09 01:54:09;;;;;;;11.05;5.47;;;;;;;18.88;81.57;100876.98;1684956;83;21100;-65
2021/08/09 01:56:39;;;;;;;23.38;5.40;;;;;;;18.85;81.70;100874.47;1692351;83;21099;-65
2021/08/09 01:59:07;;;;;;;12.18;5.40;;;;;;;18.81;81.73;100877.02;1670225;84;21564;-58
2021/08/09 02:01:35;;;;;;;16.60;5.30;;;;;;;18.75;81.88;100877.45;1701832;83;21066;-59
2021/08/09 02:04:02;;;;;;;15.38;6.10;;;;;;;18.71;81.98;100874.06;1692291;83;21059;-59
2021/08/09 02:06:31;;;;;;;17.60;6.00;;;;;;;18.68;82.15;100872.02;1697804;83;21091;-66
2021/08/09 02:08:59;;;;;;;14.15;6.10;;;;;;;18.67;82.30;100863.50;1662564;84;21078;-58
2021/08/09 02:11:52;;;;;;;20.80;5.25;;;;;;;18.64;82.58;100874.09;1670301;84;21965;-58
2021/08/09 02:14:20;;;;;;;16.93;5.45;;;;;;;18.61;82.61;100872.45;1661073;84;21465;-59
2021/08/09 02:17:01;;;;;;;13.45;5.65;;;;;;;18.54;82.91;100868.41;1700976;83;21052;-59
2021/08/09 02:19:52;;;;;;;23.25;6.40;;;;;;;18.49;83.14;100872.40;1669955;83;21056;-59
2021/08/09 02:22:42;;;;;;;14.65;5.95;;;;;;;18.45;83.20;100871.72;1661677;84;21673;-59
2021/08/09 02:25:24;;;;;;;13.50;5.50;;;;;;;18.40;83.33;100877.95;1643080;84;21178;-59
2021/08/09 02:28:05;;;;;;;9.28;5.40;;;;;;;18.39;83.42;100869.42;1648310;84;21100;-59
2021/08/09 02:30:33;;;;;;;12.73;6.55;;;;;;;18.43;83.32;100870.95;1666721;84;21060;-59
2021/08/09 02:33:00;;;;;;;10.45;5.47;;;;;;;18.42;83.10;100874.64;1664182;84;21076;-58
2021/08/09 02:35:27;;;;;;;8.63;5.78;;;;;;;18.40;83.03;100865.73;1692274;83;21064;-60
2021/08/09 02:37:55;;;;;;;8.90;5.40;;;;;;;18.39;82.97;100870.78;1670612;84;21807;-60
2021/08/09 02:40:26;;;;;;;10.03;6.33;;;;;;;18.36;82.94;100878.66;1688750;83;21127;-58
2021/08/09 02:42:55;;;;;;;9.10;5.05;;;;;;;18.33;82.96;100867.51;1675147;84;21096;-58
2021/08/09 02:45:24;;;;;;;14.43;5.17;;;;;;;18.32;83.04;100871.20;1697276;83;21046;-58
2021/08/09 02:47:51;;;;;;;6.78;5.08;;;;;;;18.32;83.06;100873.91;1687525;83;21020;-58
2021/08/09 02:50:19;;;;;;;10.55;5.65;;;;;;;18.33;82.88;100870.22;1701435;83;21467;-59
2021/08/09 02:52:46;;;;;;;8.78;5.30;;;;;;;18.32;82.66;100865.77;1670043;84;21009;-59
2021/08/09 02:55:16;;;;;;;7.35;5.22;;;;;;;18.32;82.47;100867.13;1698090;83;21536;-59
2021/08/09 02:57:43;;;;;;;12.13;5.70;;;;;;;18.31;82.44;100865.39;1686779;83;21052;-59
2021/08/09 03:00:11;;;;;;;6.78;4.87;;;;;;;18.29;82.44;100865.97;1692379;83;21013;-59
2021/08/09 03:02:40;;;;;;;11.48;5.15;;;;;;;18.29;82.34;100867.33;1696360;83;22611;-58
2021/08/09 03:05:09;;;;;;;8.15;5.33;;;;;;;18.29;82.43;100870.05;1688235;83;21499;-59
2021/08/09 03:07:36;;;;;;;15.93;5.72;;;;;;;18.30;82.38;100865.00;1648260;84;21083;-59
2021/08/09 03:10:06;;;;;;;17.17;5.72;;;;;;;18.34;82.38;100867.01;1660546;86;20998;-59
2021/08/09 03:12:35;;;;;;;10.82;5.22;;;;;;;18.39;82.25;100872.14;1655285;84;20996;-57
2021/08/09 03:15:03;;;;;;;11.00;5.45;;;;;;;18.40;82.02;100869.34;1660825;84;22005;-59
2021/08/09 03:17:30;;;;;;;11.78;5.28;;;;;;;18.42;81.97;100877.36;1672214;84;22240;-59
2021/08/09 03:19:57;;;;;;;6.05;5.08;;;;;;;18.42;81.89;100869.22;1669018;85;21097;-59
2021/08/09 03:22:24;;;;;;;8.90;5.30;;;;;;;18.45;81.70;100877.15;1642853;84;21120;-59
2021/08/09 03:24:51;;;;;;;15.78;5.87;;;;;;;18.46;81.56;100882.49;1660835;84;21132;-59
2021/08/09 03:27:19;;;;;;;18.40;5.47;;;;;;;18.48;81.45;100878.33;1660073;84;21222;-58
2021/08/09 03:30:06;;;;;;;10.93;5.15;;;;;;;18.53;81.26;100874.81;1660658;85;21541;-59
2021/08/09 03:32:33;;;;;;;7.37;5.42;;;;;;;18.60;80.92;100882.92;1754170;79;21041;-59
2021/08/09 03:35:02;;;;;;;8.95;4.55;;;;;;;18.70;80.42;100887.75;1782354;78;21469;-59
2021/08/09 03:37:29;;;;;;;10.13;5.92;;;;;;;18.74;80.11;100880.63;1795732;79;21078;-59
2021/08/09 03:39:58;;;;;;;9.65;5.83;;;;;;;18.78;79.85;100886.73;1780290;79;21071;-59
2021/08/09 03:42:25;;;;;;;9.70;5.50;;;;;;;18.80;79.75;100879.86;1776722;79;21448;-59
2021/08/09 03:44:56;;;;;;;9.90;5.50;;;;;;;18.83;79.64;100884.58;1767778;79;21082;-59
2021/08/09 03:47:23;;;;;;;10.32;5.37;;;;;;;18.89;79.43;100895.02;1786309;79;21090;-60
2021/08/09 03:49:51;;;;;;;13.48;5.80;;;;;;;18.93;79.23;100894.83;1791415;78;21062;-59
2021/08/09 03:52:18;;;;;;;11.75;5.50;;;;;;;18.99;79.02;100891.72;1794714;79;21945;-59
2021/08/09 03:54:46;;;;;;;9.08;5.58;;;;;;;19.06;78.91;100890.31;1779368;79;21094;-59
2021/08/09 03:57:13;;;;;;;12.90;5.90;;;;;;;19.14;78.64;100898.83;1780644;79;21532;-59
2021/08/09 03:59:40;;;;;;;10.03;5.72;;;;;;;19.22;78.36;100894.70;1780557;79;21472;-60
2021/08/09 04:02:13;;;;;;;11.43;6.35;;;;;;;19.30;77.98;100899.10;1774468;79;21016;-59
2021/08/09 04:04:36;;;;;;;18.85;6.17;;;;;;;19.38;77.70;100902.17;1787159;78;21160;-59
2021/08/09 04:07:05;;;;;;;21.48;5.67;;;;;;;19.48;77.37;100905.12;1777675;79;20983;-58
2021/08/09 04:09:34;;;;;;;9.60;5.67;;;;;;;19.56;77.14;100909.98;1788736;79;21034;-59
2021/08/09 04:12:02;;;;;;;7.90;5.80;;;;;;;19.66;76.85;100915.64;1784152;79;21052;-59
2021/08/09 04:14:30;;;;;;;8.13;5.25;;;;;;;19.78;76.52;100911.19;1782853;79;21011;-59
2021/08/09 04:16:59;;;;;;;8.68;5.50;;;;;;;19.89;76.10;100915.37;1796646;79;21003;-59
2021/08/09 04:19:27;;;;;;;11.08;5.67;;;;;;;19.98;75.68;100912.01;1753042;79;20998;-59
2021/08/09 04:21:54;;;;;;;9.20;5.65;;;;;;;20.11;75.21;100913.86;1783235;79;20960;-58
2021/08/09 04:24:21;;;;;;;10.63;5.70;;;;;;;20.24;74.85;100913.83;1761803;80;21063;-59
2021/08/09 04:26:48;;;;;;;8.40;6.05;;;;;;;20.38;74.33;100920.97;1784465;79;21125;-58
2021/08/09 04:29:16;;;;;;;14.10;5.72;;;;;;;20.48;73.33;100917.95;1783544;79;21870;-59
2021/08/09 04:31:43;;;;;;;8.58;5.60;;;;;;;20.51;73.45;100928.62;1782331;79;21066;-59
2021/08/09 04:34:10;;;;;;;8.45;5.30;;;;;;;20.62;72.99;100923.73;1783908;79;20924;-59
2021/08/09 04:36:37;;;;;;;12.78;5.28;;;;;;;20.71;72.65;100927.62;1788329;79;21036;-59
2021/08/09 04:39:05;;;;;;;13.80;6.05;;;;;;;20.77;72.47;100928.51;1782193;79;21444;-59
2021/08/09 04:41:32;;;;;;;9.68;5.60;;;;;;;20.85;72.43;100938.36;1771207;79;21041;-59
2021/08/09 04:43:59;;;;;;;12.50;6.03;;;;;;;20.94;71.85;100935.94;1780475;79;21045;-60
2021/08/09 04:46:27;;;;;;;11.20;4.85;;;;;;;21.05;71.84;100941.42;1787341;79;21046;-59
2021/08/09 04:48:55;;;;;;;10.13;5.60;;;;;;;21.18;71.54;100944.95;1782743;79;20980;-60
2021/08/09 04:51:23;;;;;;;8.53;5.37;;;;;;;21.30;71.33;100931.34;1753581;79;21068;-59
2021/08/09 04:53:50;;;;;;;10.95;5.85;;;;;;;21.41;70.26;100932.75;1778358;79;21842;-60
2021/08/09 04:56:19;;;;;;;13.08;5.90;;;;;;;21.47;69.73;100934.99;1781235;79;21053;-58
2021/08/09 04:58:46;;;;;;;9.73;5.28;;;;;;;21.57;69.72;100937.02;1786919;79;21004;-59
2021/08/09 05:01:13;;;;;;;9.43;5.12;;;;;;;21.62;69.23;100955.24;1777950;79;21022;-60
2021/08/09 05:03:41;;;;;;;8.73;5.50;;;;;;;21.64;69.38;100953.26;1757710;81;21061;-59
2021/08/09 05:06:10;;;;;;;8.73;5.03;;;;;;;21.74;68.83;100962.47;1782320;78;21770;-60
2021/08/09 05:08:38;;;;;;;9.38;4.58;;;;;;;21.88;68.56;100953.22;1747610;79;21071;-59
2021/08/09 05:11:05;;;;;;;16.57;5.70;;;;;;;21.98;68.12;100947.86;1784738;79;20989;-59
2021/08/09 05:13:33;;;;;;;7.30;5.15;;;;;;;22.10;67.68;100946.50;1783787;79;21024;-59
2021/08/09 05:16:00;;;;;;;7.12;4.90;;;;;;;22.20;67.21;100949.36;1772721;79;20959;-59
2021/08/09 05:18:28;;;;;;;7.60;5.47;;;;;;;22.26;67.12;100940.17;1777983;79;21035;-59
2021/08/09 05:20:56;;;;;;;7.60;5.37;;;;;;;22.37;66.23;100954.80;1785061;79;21402;-59
2021/08/09 05:23:23;;;;;;;8.98;4.80;;;;;;;22.35;66.35;100952.70;1778554;79;21074;-59
2021/08/09 05:25:50;;;;;;;8.78;4.55;;;;;;;22.38;66.49;100942.88;1783023;79;21046;-59
2021/08/09 05:28:17;;;;;;;9.33;4.80;;;;;;;22.44;66.41;100941.88;1785627;78;21050;-58
2021/08/09 05:30:44;;;;;;;13.45;5.35;;;;;;;22.58;66.60;100939.40;1776159;79;21817;-58
2021/08/09 05:33:11;;;;;;;9.20;4.80;;;;;;;22.75;65.85;100943.95;1777518;79;20972;-59
2021/08/09 05:35:39;;;;;;;7.97;4.92;;;;;;;22.87;65.42;100942.91;1769337;79;20990;-58
2021/08/09 05:38:10;;;;;;;11.73;4.90;;;;;;;22.94;65.53;100939.67;1771019;79;21010;-58
2021/08/09 05:40:39;;;;;;;17.77;5.12;;;;;;;23.08;65.64;100936.62;1768890;79;21471;-59
2021/08/09 05:43:06;;;;;;;10.55;5.60;;;;;;;23.25;65.47;100935.67;1726613;79;21086;-59
2021/08/09 05:45:33;;;;;;;14.25;4.55;;;;;;;23.41;64.92;100933.39;1777668;79;21072;-59
2021/08/09 05:48:04;;;;;;;15.48;5.20;;;;;;;23.57;64.66;100929.32;1772491;79;20923;-58
2021/08/09 05:50:31;;;;;;;8.28;5.22;;;;;;;23.75;64.43;100927.67;1744388;79;20975;-59
2021/08/09 05:53:07;;;;;;;9.63;5.83;;;;;;;23.94;63.30;100928.78;1774007;79;20967;-60
2021/08/09 05:55:36;;;;;;;10.15;5.22;;;;;;;24.09;63.20;100930.67;1742447;81;21542;-60
2021/08/09 05:58:05;;;;;;;14.20;5.45;;;;;;;24.25;62.52;100927.44;1739601;81;20927;-59
2021/08/09 06:00:34;;;;;;;9.35;5.25;;;;;;;24.35;62.54;100931.58;1768808;79;21075;-59
2021/08/09 06:03:01;;;;;;;8.25;4.25;;;;;;;24.48;62.37;100924.47;1768449;79;21405;-59
2021/08/09 06:05:41;;;;;;;5.85;3.90;;;;;;;24.64;61.95;100929.39;1769164;79;21046;-59
2021/08/09 06:08:08;;;;;;;4.25;3.67;;;;;;;24.72;61.26;100938.28;1743828;81;21117;-61
2021/08/09 06:10:35;;;;;;;8.65;4.20;;;;;;;24.78;60.67;100940.48;1743495;80;21498;-60
2021/08/09 06:13:06;;;;;;;5.78;3.40;;;;;;;24.88;60.42;100926.30;1770307;79;21048;-59
2021/08/09 06:15:35;;;;;;;6.20;4.08;;;;;;;24.98;59.73;100930.90;1764127;79;20989;-58
2021/08/09 06:18:04;;;;;;;10.63;3.55;;;;;;;25.08;59.96;100927.64;1762899;79;21135;-58
2021/08/09 06:20:31;;;;;;;7.20;3.70;;;;;;;25.17;59.46;100923.16;1739457;80;21470;-60
2021/08/09 06:22:59;;;;;;;5.30;3.77;;;;;;;25.28;59.17;100927.63;1763385;79;21015;-59
2021/08/09 06:25:27;;;;;;;9.43;5.05;;;;;;;25.39;59.14;100927.98;1755354;79;21046;-58
2021/08/09 06:27:55;;;;;;;12.82;4.78;;;;;;;25.54;59.17;100929.81;1758148;80;22100;-58
2021/08/09 06:30:23;;;;;;;6.92;4.40;;;;;;;25.69;58.98;100932.95;1758607;79;21034;-61
2021/08/09 06:32:50;;;;;;;8.70;4.05;;;;;;;25.81;57.95;100922.66;1742335;81;21100;-60
2021/08/09 06:35:22;;;;;;;10.85;4.35;;;;;;;25.90;57.10;100927.23;1750511;81;21106;-60
2021/08/09 06:37:49;;;;;;;5.55;3.87;;;;;;;25.91;56.89;100919.88;1779949;79;21665;-59
2021/08/09 06:40:18;;;;;;;7.85;4.03;;;;;;;25.92;57.08;100922.45;1782797;79;21517;-59
2021/08/09 06:42:46;;;;;;;7.70;4.17;;;;;;;25.98;57.32;100929.23;1784885;79;21453;-58
2021/08/09 06:45:16;;;;;;;9.43;4.12;;;;;;;26.05;56.70;100941.33;1741980;81;21972;-58
2021/08/09 06:47:43;;;;;;;7.83;4.15;;;;;;;26.11;56.81;100926.14;1781498;78;21108;-58
2021/08/09 06:50:11;;;;;;;10.50;3.58;;;;;;;26.27;56.47;100931.87;1780677;79;20963;-59
2021/08/09 06:52:39;;;;;;;6.50;3.33;;;;;;;26.41;55.63;100928.24;1779845;79;21896;-60
2021/08/09 06:55:09;;;;;;;8.40;4.08;;;;;;;26.52;54.86;100939.04;1776838;79;21191;-58
2021/08/09 06:57:36;;;;;;;10.88;4.47;;;;;;;26.52;54.38;100943.16;1769408;79;21768;-59
2021/08/09 07:00:05;;;;;;;10.72;4.90;;;;;;;26.52;54.10;100940.41;1770394;80;20960;-59
2021/08/09 07:02:32;;;;;;;11.73;4.90;;;;;;;26.48;53.80;100942.25;1772047;79;21078;-60
2021/08/09 07:04:59;;;;;;;12.10;4.15;;;;;;;26.47;53.76;100929.03;1765431;79;21069;-59
2021/08/09 07:07:26;;;;;;;7.45;3.30;;;;;;;26.52;53.72;100937.67;1764050;79;21050;-59
2021/08/09 07:09:55;;;;;;;7.28;3.62;;;;;;;26.58;53.40;100928.80;1744878;81;21763;-59
2021/08/09 07:12:23;;;;;;;5.33;3.40;;;;;;;26.64;51.99;100933.31;1778779;79;21045;-60
2021/08/09 07:14:52;;;;;;;8.55;3.50;;;;;;;26.63;51.92;100927.45;1776449;79;21022;-59
2021/08/09 07:17:19;;;;;;;11.93;4.30;;;;;;;26.64;51.50;100913.57;1774178;79;21106;-60
2021/08/09 07:19:48;;;;;;;9.33;3.80;;;;;;;26.70;52.39;100925.31;1786646;79;21034;-60
2021/08/09 07:22:15;;;;;;;8.93;3.85;;;;;;;26.85;52.04;100916.03;1791950;79;21015;-60
2021/08/09 07:24:42;;;;;;;11.03;4.17;;;;;;;26.95;51.00;100926.95;1783468;79;21037;-60
2021/08/09 07:27:09;;;;;;;10.75;3.65;;;;;;;26.98;51.10;100926.67;1780215;79;21039;-60
2021/08/09 07:29:36;;;;;;;6.70;3.08;;;;;;;26.98;50.41;100920.29;1773240;79;21307;-59
2021/08/09 07:32:05;;;;;;;15.58;4.12;;;;;;;27.00;50.32;100921.00;1767107;79;21081;-60
2021/08/09 07:34:32;;;;;;;14.13;4.67;;;;;;;27.02;50.07;100917.08;1729266;81;21884;-60
2021/08/09 07:36:59;;;;;;;7.25;3.45;;;;;;;27.00;50.07;100918.24;1776338;79;21060;-60
2021/08/09 07:39:28;;;;;;;7.33;2.80;;;;;;;27.03;49.63;100916.55;1775812;79;21059;-60
2021/08/09 07:41:55;;;;;;;8.50;3.02;;;;;;;27.08;50.15;100911.45;1776874;79;21124;-60
2021/08/09 07:44:23;;;;;;;10.85;3.10;;;;;;;27.10;50.25;100913.53;1781613;79;21098;-59
2021/08/09 07:46:52;;;;;;;57.90;8.98;;;;;;;27.11;49.91;100916.64;1772127;79;21079;-59
2021/08/09 07:49:20;;;;;;;44.60;6.28;;;;;;;27.13;50.23;100933.85;1770086;79;21105;-58
2021/08/09 07:51:46;;;;;;;35.88;5.50;;;;;;;27.17;49.74;100920.12;1777544;79;21323;-59
2021/08/09 07:54:14;;;;;;;7.60;3.33;;;;;;;27.22;50.09;100921.53;1776236;79;20975;-58
2021/08/09 07:56:41;;;;;;;9.53;3.45;;;;;;;27.29;49.44;100914.34;1730950;81;21398;-59
2021/08/09 07:59:08;;;;;;;5.45;2.83;;;;;;;27.36;48.75;100940.23;1753274;80;21099;-59
2021/08/09 08:01:36;;;;;;;6.33;2.70;;;;;;;27.43;48.62;100919.28;1743933;80;21118;-59
2021/08/09 08:04:04;;;;;;;8.88;3.20;;;;;;;27.43;49.18;100921.19;1730557;81;20875;-59
2021/08/09 08:06:32;;;;;;;21.25;4.62;;;;;;;27.45;49.80;100904.84;1761103;79;21059;-58
2021/08/09 08:09:00;;;;;;;8.88;3.00;;;;;;;27.56;49.28;100907.87;1760465;79;21000;-59
2021/08/09 08:11:28;;;;;;;8.50;2.80;;;;;;;27.68;48.19;100918.63;1762380;79;22232;-60
2021/08/09 08:13:55;;;;;;;22.95;4.25;;;;;;;27.72;46.86;100908.48;1760544;79;21343;-59
2021/08/09 08:16:23;;;;;;;15.58;4.08;;;;;;;27.78;46.62;100897.87;1761818;79;21031;-60
2021/08/09 08:18:52;;;;;;;40.00;5.35;;;;;;;27.86;46.52;100918.55;1759371;80;21457;-59
2021/08/09 08:21:21;;;;;;;15.40;3.65;;;;;;;27.93;46.50;100896.73;1764909;79;21413;-59
2021/08/09 08:23:49;;;;;;;28.05;4.22;;;;;;;27.95;46.10;100907.92;1761597;79;21768;-57
2021/08/09 08:26:16;;;;;;;15.15;3.35;;;;;;;27.94;46.03;100902.06;1761984;79;21023;-60
2021/08/09 08:28:46;;;;;;;6.70;2.60;;;;;;;27.92;45.83;100931.66;1761602;79;21065;-58
2021/08/09 08:31:13;;;;;;;3.95;2.50;;;;;;;27.88;46.11;100908.23;1762969;79;21066;-59
2021/08/09 08:33:40;;;;;;;3.65;2.60;;;;;;;27.90;45.87;100921.33;1772000;79;21129;-60
2021/08/09 08:36:08;;;;;;;5.08;2.42;;;;;;;27.84;45.71;100918.70;1770518;79;21804;-59
2021/08/09 08:38:36;;;;;;;6.90;2.80;;;;;;;27.83;45.66;100905.96;1775189;79;21588;-59
2021/08/09 08:41:06;;;;;;;8.25;3.05;;;;;;;27.91;45.30;100929.94;1776605;79;21106;-59
2021/08/09 08:43:35;;;;;;;11.48;2.95;;;;;;;27.93;44.94;100937.53;1775970;79;21113;-59
2021/08/09 08:46:04;;;;;;;4.85;2.80;;;;;;;27.95;45.36;100917.56;1779490;79;21029;-59
2021/08/09 08:48:35;;;;;;;6.37;2.80;;;;;;;28.01;45.08;100916.92;1777709;79;21153;-60
2021/08/09 08:51:02;;;;;;;13.93;3.05;;;;;;;28.05;45.27;100926.23;1775368;78;21088;-58
2021/08/09 08:53:35;;;;;;;6.67;2.87;;;;;;;28.02;44.71;100932.43;1775564;79;21115;-58
2021/08/09 08:56:06;;;;;;;5.75;2.80;;;;;;;28.02;45.27;100924.16;1766033;79;21719;-59
2021/08/09 08:58:33;;;;;;;4.40;3.22;;;;;;;27.97;45.91;100899.00;1775798;79;21395;-59
2021/08/09 09:01:00;;;;;;;4.87;3.12;;;;;;;28.03;46.55;100904.34;1773794;79;21354;-58
2021/08/09 09:03:28;;;;;;;6.42;2.65;;;;;;;28.20;46.88;100911.34;1772404;79;21063;-67
2021/08/09 09:06:06;;;;;;;7.15;2.60;;;;;;;28.36;45.55;100896.75;1776542;78;21048;-68
2021/08/09 09:08:47;;;;;;;2.92;2.50;;;;;;;28.40;44.79;100924.32;1774059;79;21460;-68
2021/08/09 09:11:28;;;;;;;4.45;2.83;;;;;;;28.32;44.62;100889.34;1776761;79;21085;-68
2021/08/09 09:14:05;;;;;;;4.65;3.02;;;;;;;28.27;45.27;100887.08;1754897;79;21149;-68
2021/08/09 09:16:48;;;;;;;7.78;2.90;;;;;;;28.30;45.51;100913.47;1775905;79;20979;-67
2021/08/09 09:19:37;;;;;;;3.25;2.72;;;;;;;28.35;45.31;100903.30;1775616;79;21121;-68
2021/08/09 09:22:20;;;;;;;8.48;3.00;;;;;;;28.44;44.95;100889.89;1776986;79;21038;-67
2021/08/09 09:24:53;;;;;;;10.20;3.60;;;;;;;28.49;44.91;100905.41;1774996;79;21050;-67
2021/08/09 09:27:30;;;;;;;10.32;2.90;;;;;;;28.51;44.95;100895.08;1771068;78;22016;-67
2021/08/09 09:30:21;;;;;;;2.58;2.27;;;;;;;28.60;43.86;100905.08;1755252;79;21072;-58
2021/08/09 09:33:04;;;;;;;6.95;2.70;;;;;;;28.63;42.45;100898.37;1770123;79;21037;-58
2021/08/09 09:35:35;;;;;;;6.42;2.72;;;;;;;28.72;43.34;100914.42;1739028;81;21679;-59
2021/08/09 09:38:02;;;;;;;6.20;3.08;;;;;;;28.73;43.51;100891.33;1745016;80;21042;-59
2021/08/09 09:43:20;;;;;;;7.62;2.50;;;;;;;28.77;44.19;100902.36;1761650;79;21087;-59
2021/08/09 09:45:53;;;;;;;5.75;2.60;;;;;;;28.72;43.56;100896.50;1763920;79;21113;-68
2021/08/09 09:48:34;;;;;;;6.17;2.90;;;;;;;28.69;43.02;100888.56;1762738;79;21050;-68
2021/08/09 09:51:19;;;;;;;3.62;3.27;;;;;;;28.63;43.72;100891.98;1765979;79;21077;-69
2021/08/09 09:53:47;;;;;;;;;;;;;;;28.62;43.39;100902.16;1766945;79;21129;-68
2021/08/09 09:56:17;;;;;;;5.80;3.30;;;;;;;28.65;43.83;100900.44;1733561;81;20155;-70
2021/08/09 09:58:44;;;;;;;9.00;3.10;;;;;;;28.70;43.93;100897.19;1733849;81;21560;-69
2021/08/09 10:01:11;;;;;;;6.00;2.80;;;;;;;28.75;43.51;100915.46;1765606;79;21117;-68
2021/08/09 10:03:41;;;;;;;7.22;2.67;;;;;;;28.72;43.51;100909.75;1766445;79;21622;-66
2021/08/09 10:06:09;;;;;;;5.22;2.65;;;;;;;28.73;43.18;100910.63;1775437;79;21504;-67
2021/08/09 10:08:42;;;;;;;3.98;2.70;;;;;;;28.77;43.03;100913.92;1759659;79;20892;-67
2021/08/09 10:11:09;;;;;;;5.67;2.65;;;;;;;28.84;43.01;100916.38;1766803;80;21105;-65
2021/08/09 10:13:37;;;;;;;3.15;2.50;;;;;;;28.91;42.26;100916.55;1772009;79;21390;-67
2021/08/09 10:16:33;;;;;;;5.70;2.17;;;;;;;28.91;41.98;100904.14;1772304;79;21058;-67
2021/08/09 10:19:00;;;;;;;4.45;2.40;;;;;;;28.90;42.61;100912.92;1743644;81;21110;-66
2021/08/09 10:21:30;;;;;;;8.13;2.10;;;;;;;28.92;41.74;100913.61;1772797;79;21534;-59
2021/08/09 10:23:57;;;;;;;6.90;2.40;;;;;;;28.96;42.23;100914.14;1776184;79;21006;-59
2021/08/09 10:26:38;;;;;;;8.83;2.83;;;;;;;29.05;42.64;100919.15;1783010;79;21094;-61
2021/08/09 10:29:09;;;;;;;4.50;2.00;;;;;;;29.10;42.49;100911.21;1771360;79;21062;-59
2021/08/09 10:31:40;;;;;;;4.83;2.30;;;;;;;29.19;40.12;100909.31;1771450;79;21130;-59
2021/08/09 10:34:10;;;;;;;6.20;2.17;;;;;;;29.21;39.78;100918.28;1785994;79;20933;-59
2021/08/09 10:37:10;;;;;;;13.78;2.75;;;;;;;29.18;40.11;100926.91;1759514;79;21122;-59
2021/08/09 10:40:14;;;;;;;12.53;2.10;;;;;;;29.20;39.59;100921.58;1757190;79;21049;-60
2021/08/09 10:42:42;;;;;;;8.15;2.45;;;;;;;29.26;39.53;100923.64;1779399;79;21106;-59
2021/08/09 10:45:16;;;;;;;5.92;2.40;;;;;;;29.29;39.28;100925.17;1780182;79;21167;-66
2021/08/09 10:47:53;;;;;;;6.70;2.35;;;;;;;29.36;39.17;100922.08;1776191;79;21314;-68
2021/08/09 10:50:28;;;;;;;6.95;2.40;;;;;;;29.37;38.31;100930.70;1775289;79;20970;-67
2021/08/09 10:52:56;;;;;;;10.48;2.27;;;;;;;29.38;38.79;100920.00;1770630;79;21059;-66
2021/08/09 10:55:34;;;;;;;7.58;2.30;;;;;;;29.41;39.70;100929.34;1780348;79;21113;-68
2021/08/09 10:58:45;;;;;;;6.72;2.40;;;;;;;29.44;40.47;100917.11;1739702;81;21963;-68
2021/08/09 11:01:15;;;;;;;6.22;2.70;;;;;;;29.49;40.64;100916.55;1770696;79;21073;-68
2021/08/09 11:04:06;;;;;;;6.70;2.77;;;;;;;29.43;40.75;100913.47;1778907;79;21335;-68
2021/08/09 11:06:45;;;;;;;6.87;2.80;;;;;;;29.40;40.59;100902.74;1777448;79;21007;-69
2021/08/09 11:09:34;;;;;;;7.67;2.50;;;;;;;29.40;40.72;100894.45;1773514;79;21040;-67
2021/08/09 11:12:25;;;;;;;13.40;3.17;;;;;;;29.46;40.14;100915.03;1775871;79;20868;-69
2021/08/09 11:15:06;;;;;;;10.68;2.55;;;;;;;29.55;39.64;100907.06;1772342;79;20908;-68
2021/08/09 11:17:43;;;;;;;8.35;2.42;;;;;;;29.66;39.57;100903.60;1767483;79;21131;-69
2021/08/09 11:20:15;;;;;;;4.70;2.40;;;;;;;29.70;38.64;100921.55;1763596;79;21018;-69
2021/08/09 11:22:58;;;;;;;5.58;2.62;;;;;;;29.64;39.18;100916.20;1779120;79;20940;-60
2021/08/09 11:25:33;;;;;;;6.72;3.17;;;;;;;29.63;39.03;100893.75;1760001;79;21899;-65
2021/08/09 11:28:06;;;;;;;8.53;2.33;;;;;;;29.62;38.53;100891.16;1781423;79;21736;-68
2021/08/09 11:30:49;;;;;;;7.03;2.40;;;;;;;29.64;39.12;100901.00;1787223;79;21347;-71
2021/08/09 11:33:34;;;;;;;2.83;2.37;;;;;;;29.70;38.68;100907.20;1777404;79;21027;-61
2021/08/09 11:36:11;;;;;;;9.53;2.40;;;;;;;29.75;39.24;100901.69;1765964;79;21095;-65
2021/08/09 11:38:57;;;;;;;12.63;2.70;;;;;;;29.72;39.26;100889.92;1766815;80;21794;-63
2021/08/09 11:41:29;;;;;;;2.83;2.40;;;;;;;29.71;39.03;100892.88;1763747;80;21435;-62